sensor_id;sensor_type;location;lat;lon;timestamp;pressure;altitude;pressure_sealevel;temperature;humidity
12781;BME280;6454;43.304;24.344;2023-05-02T00:01:15;100688.13;;;9.48;76.18
12781;BME280;6454;43.304;24.344;2023-05-02T00:03:42;100694.91;;;9.56;75.65
12781;BME280;6454;43.304;24.344;2023-05-02T00:06:09;100665.59;;;9.33;75.79
12781;BME280;6454;43.304;24.344;2023-05-02T00:08:36;100696.56;;;9.57;75.54
12781;BME280;6454;43.304;24.344;2023-05-02T00:11:03;100698.97;;;9.48;75.35
12781;BME280;6454;43.304;24.344;2023-05-02T00:13:32;100690.72;;;9.23;76.29
12781;BME280;6454;43.304;24.344;2023-05-02T00:15:59;100694.25;;;9.24;76.75
12781;BME280;6454;43.304;24.344;2023-05-02T00:18:25;100697.50;;;9.26;76.65
12781;BME280;6454;43.304;24.344;2023-05-02T00:20:53;100705.38;;;9.22;75.85
12781;BME280;6454;43.304;24.344;2023-05-02T00:23:20;100701.28;;;9.20;76.06
12781;BME280;6454;43.304;24.344;2023-05-02T00:25:48;100694.75;;;9.16;76.47
12781;BME280;6454;43.304;24.344;2023-05-02T00:28:15;100702.91;;;9.21;76.38
12781;BME280;6454;43.304;24.344;2023-05-02T00:30:44;100702.63;;;9.17;76.85
12781;BME280;6454;43.304;24.344;2023-05-02T00:33:11;100704.00;;;9.20;76.60
12781;BME280;6454;43.304;24.344;2023-05-02T00:35:39;100703.16;;;9.14;76.46
12781;BME280;6454;43.304;24.344;2023-05-02T00:38:06;100711.03;;;9.21;75.49
12781;BME280;6454;43.304;24.344;2023-05-02T00:40:42;100704.78;;;9.20;75.14
12781;BME280;6454;43.304;24.344;2023-05-02T00:43:09;100704.97;;;9.03;76.03
12781;BME280;6454;43.304;24.344;2023-05-02T00:45:36;100711.72;;;9.01;76.04
12781;BME280;6454;43.304;24.344;2023-05-02T00:48:06;100711.19;;;8.99;75.96
12781;BME280;6454;43.304;24.344;2023-05-02T00:50:34;100707.16;;;9.01;75.76
12781;BME280;6454;43.304;24.344;2023-05-02T00:53:02;100712.22;;;8.93;75.79
12781;BME280;6454;43.304;24.344;2023-05-02T00:55:30;100713.53;;;8.85;76.43
12781;BME280;6454;43.304;24.344;2023-05-02T00:57:57;100711.38;;;8.82;76.38
12781;BME280;6454;43.304;24.344;2023-05-02T01:00:31;100715.38;;;8.75;76.40
12781;BME280;6454;43.304;24.344;2023-05-02T01:03:09;100711.81;;;8.69;76.69
12781;BME280;6454;43.304;24.344;2023-05-02T01:05:42;100700.63;;;8.56;76.81
12781;BME280;6454;43.304;24.344;2023-05-02T01:08:18;100713.97;;;8.67;76.12
12781;BME280;6454;43.304;24.344;2023-05-02T01:10:52;100713.69;;;8.69;76.24
12781;BME280;6454;43.304;24.344;2023-05-02T01:13:26;100711.16;;;8.52;76.87
12781;BME280;6454;43.304;24.344;2023-05-02T01:15:55;100705.13;;;8.45;77.35
12781;BME280;6454;43.304;24.344;2023-05-02T01:18:28;100709.81;;;8.55;76.60
12781;BME280;6454;43.304;24.344;2023-05-02T01:20:58;100703.31;;;8.56;76.18
12781;BME280;6454;43.304;24.344;2023-05-02T01:23:30;100716.31;;;8.59;76.21
12781;BME280;6454;43.304;24.344;2023-05-02T01:26:09;100717.97;;;8.60;75.09
12781;BME280;6454;43.304;24.344;2023-05-02T01:29:04;100708.69;;;8.51;75.33
12781;BME280;6454;43.304;24.344;2023-05-02T01:31:34;100707.81;;;8.45;76.02
12781;BME280;6454;43.304;24.344;2023-05-02T01:34:03;100699.34;;;8.31;77.31
12781;BME280;6454;43.304;24.344;2023-05-02T01:36:32;100709.38;;;8.36;77.46
12781;BME280;6454;43.304;24.344;2023-05-02T01:39:00;100711.84;;;8.37;76.70
12781;BME280;6454;43.304;24.344;2023-05-02T01:41:30;100687.09;;;8.24;76.70
12781;BME280;6454;43.304;24.344;2023-05-02T01:43:58;100715.34;;;8.38;76.58
12781;BME280;6454;43.304;24.344;2023-05-02T01:46:30;100709.28;;;8.26;76.89
12781;BME280;6454;43.304;24.344;2023-05-02T01:49:01;100709.75;;;8.18;78.06
12781;BME280;6454;43.304;24.344;2023-05-02T01:51:29;100711.94;;;8.21;78.51
12781;BME280;6454;43.304;24.344;2023-05-02T01:53:59;100714.13;;;8.24;77.79
12781;BME280;6454;43.304;24.344;2023-05-02T01:56:28;100711.59;;;8.12;78.27
12781;BME280;6454;43.304;24.344;2023-05-02T01:58:58;100713.66;;;8.27;76.94
12781;BME280;6454;43.304;24.344;2023-05-02T02:01:25;100699.19;;;8.16;76.60
12781;BME280;6454;43.304;24.344;2023-05-02T02:03:57;100714.63;;;8.21;77.18
12781;BME280;6454;43.304;24.344;2023-05-02T02:06:26;100709.19;;;8.16;77.61
12781;BME280;6454;43.304;24.344;2023-05-02T02:08:53;100704.78;;;8.05;78.32
12781;BME280;6454;43.304;24.344;2023-05-02T02:11:25;100712.34;;;8.08;77.89
12781;BME280;6454;43.304;24.344;2023-05-02T02:13:59;100711.56;;;8.07;77.52
12781;BME280;6454;43.304;24.344;2023-05-02T02:16:31;100711.78;;;8.06;77.68
12781;BME280;6454;43.304;24.344;2023-05-02T02:19:05;100708.84;;;8.07;76.77
12781;BME280;6454;43.304;24.344;2023-05-02T02:21:33;100720.34;;;7.93;77.08
12781;BME280;6454;43.304;24.344;2023-05-02T02:24:02;100709.97;;;7.85;78.01
12781;BME280;6454;43.304;24.344;2023-05-02T02:26:30;100708.09;;;7.85;77.88
12781;BME280;6454;43.304;24.344;2023-05-02T02:28:57;100708.88;;;7.86;77.66
12781;BME280;6454;43.304;24.344;2023-05-02T02:31:29;100687.50;;;7.79;77.20
12781;BME280;6454;43.304;24.344;2023-05-02T02:33:56;100709.16;;;7.84;76.91
12781;BME280;6454;43.304;24.344;2023-05-02T02:36:29;100706.19;;;7.86;76.87
12781;BME280;6454;43.304;24.344;2023-05-02T02:39:05;100665.56;;;7.49;76.85
12781;BME280;6454;43.304;24.344;2023-05-02T02:41:39;100714.84;;;7.61;78.06
12781;BME280;6454;43.304;24.344;2023-05-02T02:44:17;100708.66;;;7.65;78.22
12781;BME280;6454;43.304;24.344;2023-05-02T02:46:55;100706.84;;;7.71;78.48
12781;BME280;6454;43.304;24.344;2023-05-02T02:49:31;100703.53;;;7.64;78.59
12781;BME280;6454;43.304;24.344;2023-05-02T02:52:08;100678.34;;;7.58;77.48
12781;BME280;6454;43.304;24.344;2023-05-02T02:54:41;100706.09;;;7.75;77.22
12781;BME280;6454;43.304;24.344;2023-05-02T02:57:15;100703.31;;;7.70;76.83
12781;BME280;6454;43.304;24.344;2023-05-02T02:59:50;100717.25;;;7.57;77.88
12781;BME280;6454;43.304;24.344;2023-05-02T03:02:18;100716.66;;;7.55;77.63
12781;BME280;6454;43.304;24.344;2023-05-02T03:04:50;100709.38;;;7.56;77.26
12781;BME280;6454;43.304;24.344;2023-05-02T03:07:20;100720.38;;;7.49;78.04
12781;BME280;6454;43.304;24.344;2023-05-02T03:09:47;100720.19;;;7.56;77.85
12781;BME280;6454;43.304;24.344;2023-05-02T03:12:14;100720.38;;;7.49;77.64
12781;BME280;6454;43.304;24.344;2023-05-02T03:14:41;100702.22;;;7.23;78.04
12781;BME280;6454;43.304;24.344;2023-05-02T03:17:08;100727.66;;;7.27;80.26
12781;BME280;6454;43.304;24.344;2023-05-02T03:19:35;100728.22;;;7.29;80.98
12781;BME280;6454;43.304;24.344;2023-05-02T03:22:01;100732.63;;;7.35;81.13
12781;BME280;6454;43.304;24.344;2023-05-02T03:24:30;100731.13;;;7.44;80.40
12781;BME280;6454;43.304;24.344;2023-05-02T03:26:57;100740.41;;;7.53;78.79
12781;BME280;6454;43.304;24.344;2023-05-02T03:29:24;100737.19;;;7.56;78.96
12781;BME280;6454;43.304;24.344;2023-05-02T03:31:53;100738.25;;;7.55;79.33
12781;BME280;6454;43.304;24.344;2023-05-02T03:34:19;100747.19;;;7.56;79.21
12781;BME280;6454;43.304;24.344;2023-05-02T03:36:47;100743.84;;;7.49;79.65
12781;BME280;6454;43.304;24.344;2023-05-02T03:39:14;100745.03;;;7.36;80.49
12781;BME280;6454;43.304;24.344;2023-05-02T03:41:42;100748.13;;;7.45;81.15
12781;BME280;6454;43.304;24.344;2023-05-02T03:44:09;100753.13;;;7.58;80.74
12781;BME280;6454;43.304;24.344;2023-05-02T03:46:36;100759.47;;;7.68;80.08
12781;BME280;6454;43.304;24.344;2023-05-02T03:49:03;100753.03;;;7.69;80.58
12781;BME280;6454;43.304;24.344;2023-05-02T03:51:29;100754.41;;;7.72;80.22
12781;BME280;6454;43.304;24.344;2023-05-02T03:53:59;100759.47;;;7.68;80.61
12781;BME280;6454;43.304;24.344;2023-05-02T03:56:26;100764.50;;;7.82;80.90
12781;BME280;6454;43.304;24.344;2023-05-02T03:58:54;100760.09;;;7.75;81.34
12781;BME280;6454;43.304;24.344;2023-05-02T04:01:21;100762.97;;;7.91;81.80
12781;BME280;6454;43.304;24.344;2023-05-02T04:03:48;100755.03;;;8.06;82.17
12781;BME280;6454;43.304;24.344;2023-05-02T04:06:15;100755.72;;;8.23;82.80
12781;BME280;6454;43.304;24.344;2023-05-02T04:08:42;100753.94;;;8.28;82.33
12781;BME280;6454;43.304;24.344;2023-05-02T04:11:09;100761.63;;;8.41;82.78
12781;BME280;6454;43.304;24.344;2023-05-02T04:13:36;100759.81;;;8.52;82.72
12781;BME280;6454;43.304;24.344;2023-05-02T04:16:04;100769.94;;;8.67;82.74
12781;BME280;6454;43.304;24.344;2023-05-02T04:18:31;100761.56;;;8.68;81.84
12781;BME280;6454;43.304;24.344;2023-05-02T04:20:58;100760.34;;;8.86;83.12
12781;BME280;6454;43.304;24.344;2023-05-02T04:23:25;100763.41;;;8.99;83.19
12781;BME280;6454;43.304;24.344;2023-05-02T04:25:52;100758.94;;;9.25;83.32
12781;BME280;6454;43.304;24.344;2023-05-02T04:28:19;100755.19;;;9.26;82.50
12781;BME280;6454;43.304;24.344;2023-05-02T04:30:47;100765.25;;;9.36;82.45
12781;BME280;6454;43.304;24.344;2023-05-02T04:33:15;100757.75;;;9.58;83.62
12781;BME280;6454;43.304;24.344;2023-05-02T04:35:43;100755.91;;;9.68;83.36
12781;BME280;6454;43.304;24.344;2023-05-02T04:38:10;100759.50;;;9.84;83.23
12781;BME280;6454;43.304;24.344;2023-05-02T04:40:36;100760.59;;;9.93;83.42
12781;BME280;6454;43.304;24.344;2023-05-02T04:43:03;100755.19;;;10.03;83.45
12781;BME280;6454;43.304;24.344;2023-05-02T04:45:30;100761.97;;;10.11;83.00
12781;BME280;6454;43.304;24.344;2023-05-02T04:47:57;100756.91;;;10.29;82.40
12781;BME280;6454;43.304;24.344;2023-05-02T04:50:25;100753.66;;;10.48;82.68
12781;BME280;6454;43.304;24.344;2023-05-02T04:52:52;100752.56;;;10.64;82.82
12781;BME280;6454;43.304;24.344;2023-05-02T04:55:19;100750.94;;;10.78;82.85
12781;BME280;6454;43.304;24.344;2023-05-02T04:57:46;100749.84;;;10.89;82.26
12781;BME280;6454;43.304;24.344;2023-05-02T05:00:13;100749.53;;;11.06;81.55
12781;BME280;6454;43.304;24.344;2023-05-02T05:02:40;100752.19;;;11.26;80.84
12781;BME280;6454;43.304;24.344;2023-05-02T05:05:07;100762.47;;;11.39;80.62
12781;BME280;6454;43.304;24.344;2023-05-02T05:07:35;100755.66;;;11.51;80.99
12781;BME280;6454;43.304;24.344;2023-05-02T05:10:02;100752.31;;;11.64;80.79
12781;BME280;6454;43.304;24.344;2023-05-02T05:12:29;100751.44;;;11.79;80.47
12781;BME280;6454;43.304;24.344;2023-05-02T05:14:56;100748.38;;;12.01;80.58
12781;BME280;6454;43.304;24.344;2023-05-02T05:17:22;100753.41;;;12.17;80.16
12781;BME280;6454;43.304;24.344;2023-05-02T05:19:49;100746.56;;;12.25;79.84
12781;BME280;6454;43.304;24.344;2023-05-02T05:22:16;100752.41;;;12.42;79.45
12781;BME280;6454;43.304;24.344;2023-05-02T05:24:51;100753.38;;;12.61;78.88
12781;BME280;6454;43.304;24.344;2023-05-02T05:27:18;100755.38;;;12.79;77.57
12781;BME280;6454;43.304;24.344;2023-05-02T05:29:45;100751.41;;;12.96;75.59
12781;BME280;6454;43.304;24.344;2023-05-02T05:32:11;100758.34;;;13.12;75.13
12781;BME280;6454;43.304;24.344;2023-05-02T05:34:38;100747.28;;;13.27;74.42
12781;BME280;6454;43.304;24.344;2023-05-02T05:37:05;100752.00;;;13.45;74.14
12781;BME280;6454;43.304;24.344;2023-05-02T05:39:32;100753.97;;;13.63;74.63
12781;BME280;6454;43.304;24.344;2023-05-02T05:42:00;100754.22;;;13.85;75.17
12781;BME280;6454;43.304;24.344;2023-05-02T05:44:28;100756.34;;;14.07;72.82
12781;BME280;6454;43.304;24.344;2023-05-02T05:46:54;100752.66;;;14.16;70.82
12781;BME280;6454;43.304;24.344;2023-05-02T05:49:21;100757.53;;;14.19;70.54
12781;BME280;6454;43.304;24.344;2023-05-02T05:51:48;100756.25;;;14.36;71.33
12781;BME280;6454;43.304;24.344;2023-05-02T05:54:15;100755.91;;;14.56;72.22
12781;BME280;6454;43.304;24.344;2023-05-02T05:56:43;100746.88;;;14.74;72.67
12781;BME280;6454;43.304;24.344;2023-05-02T05:59:11;100743.97;;;14.84;71.84
12781;BME280;6454;43.304;24.344;2023-05-02T06:01:38;100755.84;;;14.93;72.81
12781;BME280;6454;43.304;24.344;2023-05-02T06:04:05;100749.78;;;15.10;72.01
12781;BME280;6454;43.304;24.344;2023-05-02T06:06:31;100750.41;;;15.20;72.22
12781;BME280;6454;43.304;24.344;2023-05-02T06:08:58;100744.94;;;15.34;71.82
12781;BME280;6454;43.304;24.344;2023-05-02T06:11:25;100747.41;;;15.49;72.64
12781;BME280;6454;43.304;24.344;2023-05-02T06:13:52;100741.94;;;15.63;71.74
12781;BME280;6454;43.304;24.344;2023-05-02T06:16:21;100745.78;;;15.75;71.31
12781;BME280;6454;43.304;24.344;2023-05-02T06:18:49;100741.41;;;15.88;70.64
12781;BME280;6454;43.304;24.344;2023-05-02T06:21:16;100742.66;;;16.04;69.06
12781;BME280;6454;43.304;24.344;2023-05-02T06:23:43;100739.13;;;16.26;70.60
12781;BME280;6454;43.304;24.344;2023-05-02T06:26:10;100701.25;;;16.19;69.35
12781;BME280;6454;43.304;24.344;2023-05-02T06:28:36;100738.44;;;16.56;68.17
12781;BME280;6454;43.304;24.344;2023-05-02T06:31:04;100744.66;;;16.70;67.03
12781;BME280;6454;43.304;24.344;2023-05-02T06:33:33;100744.59;;;16.84;67.71
12781;BME280;6454;43.304;24.344;2023-05-02T06:36:00;100741.44;;;16.99;66.44
12781;BME280;6454;43.304;24.344;2023-05-02T06:38:27;100741.16;;;17.09;65.31
12781;BME280;6454;43.304;24.344;2023-05-02T06:40:53;100744.13;;;17.21;64.55
12781;BME280;6454;43.304;24.344;2023-05-02T06:43:20;100742.13;;;17.44;65.23
12781;BME280;6454;43.304;24.344;2023-05-02T06:45:47;100734.31;;;17.59;64.38
12781;BME280;6454;43.304;24.344;2023-05-02T06:48:14;100745.81;;;17.70;63.54
12781;BME280;6454;43.304;24.344;2023-05-02T06:50:42;100743.53;;;17.72;62.52
12781;BME280;6454;43.304;24.344;2023-05-02T06:53:09;100745.97;;;17.90;62.85
12781;BME280;6454;43.304;24.344;2023-05-02T06:55:35;100744.41;;;18.07;61.39
12781;BME280;6454;43.304;24.344;2023-05-02T06:58:02;100741.19;;;18.05;60.62
12781;BME280;6454;43.304;24.344;2023-05-02T07:00:29;100741.31;;;18.25;61.46
12781;BME280;6454;43.304;24.344;2023-05-02T07:02:56;100741.00;;;18.44;59.48
12781;BME280;6454;43.304;24.344;2023-05-02T07:05:22;100736.16;;;18.58;59.78
12781;BME280;6454;43.304;24.344;2023-05-02T07:07:51;100739.38;;;18.77;59.15
12781;BME280;6454;43.304;24.344;2023-05-02T07:10:17;100734.31;;;18.96;55.92
12781;BME280;6454;43.304;24.344;2023-05-02T07:12:44;100739.94;;;19.17;56.00
12781;BME280;6454;43.304;24.344;2023-05-02T07:15:11;100729.97;;;19.33;52.17
12781;BME280;6454;43.304;24.344;2023-05-02T07:17:38;100733.38;;;19.39;50.43
12781;BME280;6454;43.304;24.344;2023-05-02T07:20:06;100737.78;;;19.60;50.27
12781;BME280;6454;43.304;24.344;2023-05-02T07:22:34;100730.84;;;19.83;51.26
12781;BME280;6454;43.304;24.344;2023-05-02T07:25:02;100734.81;;;19.94;50.21
12781;BME280;6454;43.304;24.344;2023-05-02T07:27:29;100727.97;;;20.01;46.30
12781;BME280;6454;43.304;24.344;2023-05-02T07:29:55;100730.25;;;20.19;46.68
12781;BME280;6454;43.304;24.344;2023-05-02T07:32:22;100727.47;;;20.28;45.97
12781;BME280;6454;43.304;24.344;2023-05-02T07:34:50;100725.31;;;20.54;46.90
12781;BME280;6454;43.304;24.344;2023-05-02T07:37:19;100712.84;;;20.69;46.43
12781;BME280;6454;43.304;24.344;2023-05-02T07:39:46;100715.47;;;20.77;45.31
12781;BME280;6454;43.304;24.344;2023-05-02T07:42:14;100723.09;;;20.92;45.01
12781;BME280;6454;43.304;24.344;2023-05-02T07:44:40;100725.63;;;20.97;43.75
12781;BME280;6454;43.304;24.344;2023-05-02T07:47:07;100719.13;;;21.14;43.90
12781;BME280;6454;43.304;24.344;2023-05-02T07:49:34;100718.69;;;21.12;43.55
12781;BME280;6454;43.304;24.344;2023-05-02T07:52:03;100723.66;;;21.31;42.52
12781;BME280;6454;43.304;24.344;2023-05-02T07:54:30;100721.94;;;21.50;41.23
12781;BME280;6454;43.304;24.344;2023-05-02T07:56:56;100724.56;;;21.59;39.98
12781;BME280;6454;43.304;24.344;2023-05-02T07:59:28;100723.19;;;21.65;37.52
12781;BME280;6454;43.304;24.344;2023-05-02T08:01:55;100725.25;;;21.80;39.91
12781;BME280;6454;43.304;24.344;2023-05-02T08:04:22;100726.94;;;21.84;37.94
12781;BME280;6454;43.304;24.344;2023-05-02T08:06:49;100729.16;;;22.03;38.82
12781;BME280;6454;43.304;24.344;2023-05-02T08:09:15;100731.66;;;22.08;38.79
12781;BME280;6454;43.304;24.344;2023-05-02T08:11:44;100729.00;;;22.12;39.24
12781;BME280;6454;43.304;24.344;2023-05-02T08:14:11;100729.69;;;22.09;37.82
12781;BME280;6454;43.304;24.344;2023-05-02T08:16:39;100730.09;;;22.35;37.87
12781;BME280;6454;43.304;24.344;2023-05-02T08:19:06;100732.41;;;22.33;37.12
12781;BME280;6454;43.304;24.344;2023-05-02T08:21:33;100724.31;;;22.40;36.48
12781;BME280;6454;43.304;24.344;2023-05-02T08:24:00;100722.28;;;22.53;36.68
12781;BME280;6454;43.304;24.344;2023-05-02T08:26:27;100721.66;;;22.43;35.77
12781;BME280;6454;43.304;24.344;2023-05-02T08:28:54;100694.00;;;22.43;36.55
12781;BME280;6454;43.304;24.344;2023-05-02T08:31:21;100720.06;;;22.70;34.93
12781;BME280;6454;43.304;24.344;2023-05-02T08:33:49;100716.97;;;22.87;35.38
12781;BME280;6454;43.304;24.344;2023-05-02T08:36:17;100717.78;;;22.88;36.33
12781;BME280;6454;43.304;24.344;2023-05-02T08:38:44;100710.28;;;23.04;35.65
12781;BME280;6454;43.304;24.344;2023-05-02T08:41:12;100702.59;;;22.97;34.39
12781;BME280;6454;43.304;24.344;2023-05-02T08:43:40;100703.22;;;23.06;36.53
12781;BME280;6454;43.304;24.344;2023-05-02T08:46:08;100700.63;;;23.14;38.77
12781;BME280;6454;43.304;24.344;2023-05-02T08:48:37;100697.94;;;23.01;37.64
12781;BME280;6454;43.304;24.344;2023-05-02T08:51:07;100697.78;;;22.94;37.64
12781;BME280;6454;43.304;24.344;2023-05-02T08:53:35;100700.63;;;23.14;37.74
12781;BME280;6454;43.304;24.344;2023-05-02T08:56:02;100699.91;;;23.17;37.35
12781;BME280;6454;43.304;24.344;2023-05-02T08:58:29;100691.50;;;23.29;37.99
12781;BME280;6454;43.304;24.344;2023-05-02T09:01:00;100692.59;;;23.24;37.29
12781;BME280;6454;43.304;24.344;2023-05-02T09:03:30;100687.25;;;23.16;36.44
12781;BME280;6454;43.304;24.344;2023-05-02T09:06:06;100695.53;;;23.31;37.16
12781;BME280;6454;43.304;24.344;2023-05-02T09:08:33;100690.00;;;23.31;36.35
12781;BME280;6454;43.304;24.344;2023-05-02T09:11:01;100685.53;;;23.27;36.20
12781;BME280;6454;43.304;24.344;2023-05-02T09:13:33;100686.25;;;23.24;35.80
12781;BME280;6454;43.304;24.344;2023-05-02T09:16:02;100688.41;;;23.30;36.11
12781;BME280;6454;43.304;24.344;2023-05-02T09:18:30;100678.34;;;23.38;35.71
12781;BME280;6454;43.304;24.344;2023-05-02T09:20:59;100679.59;;;23.40;34.08
12781;BME280;6454;43.304;24.344;2023-05-02T09:23:35;100672.16;;;23.44;33.95
12781;BME280;6454;43.304;24.344;2023-05-02T09:26:14;100678.28;;;23.53;34.59
12781;BME280;6454;43.304;24.344;2023-05-02T09:28:43;100679.53;;;23.56;32.65
12781;BME280;6454;43.304;24.344;2023-05-02T09:31:12;100656.19;;;23.38;32.24
12781;BME280;6454;43.304;24.344;2023-05-02T09:33:39;100685.31;;;23.66;33.15
12781;BME280;6454;43.304;24.344;2023-05-02T09:36:08;100667.03;;;23.62;32.32
12781;BME280;6454;43.304;24.344;2023-05-02T09:38:37;100670.66;;;23.66;33.13
12781;BME280;6454;43.304;24.344;2023-05-02T09:41:04;100673.34;;;23.78;31.87
12781;BME280;6454;43.304;24.344;2023-05-02T09:43:30;100676.53;;;23.80;32.01
12781;BME280;6454;43.304;24.344;2023-05-02T09:45:59;100667.44;;;23.80;31.90
12781;BME280;6454;43.304;24.344;2023-05-02T09:48:27;100670.34;;;23.87;32.73
12781;BME280;6454;43.304;24.344;2023-05-02T09:50:55;100664.28;;;23.81;33.16
12781;BME280;6454;43.304;24.344;2023-05-02T09:53:25;100667.00;;;23.78;32.83
12781;BME280;6454;43.304;24.344;2023-05-02T09:56:00;100660.44;;;23.86;33.29
12781;BME280;6454;43.304;24.344;2023-05-02T09:58:27;100660.06;;;23.87;34.09
12781;BME280;6454;43.304;24.344;2023-05-02T10:00:55;100649.78;;;24.07;34.87
12781;BME280;6454;43.304;24.344;2023-05-02T10:03:24;100649.47;;;24.27;34.02
12781;BME280;6454;43.304;24.344;2023-05-02T10:05:51;100650.41;;;24.35;33.54
12781;BME280;6454;43.304;24.344;2023-05-02T10:08:20;100657.47;;;24.32;32.70
12781;BME280;6454;43.304;24.344;2023-05-02T10:10:50;100657.41;;;24.29;32.23
12781;BME280;6454;43.304;24.344;2023-05-02T10:13:21;100651.56;;;24.34;32.03
12781;BME280;6454;43.304;24.344;2023-05-02T10:15:55;100643.59;;;24.52;31.74
12781;BME280;6454;43.304;24.344;2023-05-02T10:18:27;100643.59;;;24.52;32.78
12781;BME280;6454;43.304;24.344;2023-05-02T10:20:58;100650.25;;;24.47;32.69
12781;BME280;6454;43.304;24.344;2023-05-02T10:23:26;100652.28;;;24.50;31.55
12781;BME280;6454;43.304;24.344;2023-05-02T10:25:54;100638.41;;;24.50;31.53
12781;BME280;6454;43.304;24.344;2023-05-02T10:28:24;100645.03;;;24.65;32.33
12781;BME280;6454;43.304;24.344;2023-05-02T10:30:52;100636.28;;;24.63;32.48
12781;BME280;6454;43.304;24.344;2023-05-02T10:33:19;100640.50;;;24.57;30.57
12781;BME280;6454;43.304;24.344;2023-05-02T10:35:46;100636.75;;;24.68;30.53
12781;BME280;6454;43.304;24.344;2023-05-02T10:38:15;100627.84;;;24.78;30.51
12781;BME280;6454;43.304;24.344;2023-05-02T10:40:49;100633.47;;;24.82;29.99
12781;BME280;6454;43.304;24.344;2023-05-02T10:43:24;100632.41;;;24.90;29.44
12781;BME280;6454;43.304;24.344;2023-05-02T10:45:52;100625.47;;;25.03;30.02
12781;BME280;6454;43.304;24.344;2023-05-02T10:48:21;100628.81;;;25.12;28.82
12781;BME280;6454;43.304;24.344;2023-05-02T10:50:50;100641.28;;;24.99;29.24
12781;BME280;6454;43.304;24.344;2023-05-02T10:53:24;100629.13;;;25.07;29.98
12781;BME280;6454;43.304;24.344;2023-05-02T10:56:07;100626.53;;;25.18;29.46
12781;BME280;6454;43.304;24.344;2023-05-02T10:58:36;100623.28;;;25.16;30.21
12781;BME280;6454;43.304;24.344;2023-05-02T11:01:33;100623.94;;;25.06;29.26
12781;BME280;6454;43.304;24.344;2023-05-02T11:04:03;100625.63;;;25.10;30.21
12781;BME280;6454;43.304;24.344;2023-05-02T11:06:31;100616.00;;;25.30;30.13
12781;BME280;6454;43.304;24.344;2023-05-02T11:09:32;100613.16;;;25.27;29.53
12781;BME280;6454;43.304;24.344;2023-05-02T11:11:59;100617.97;;;25.30;28.41
12781;BME280;6454;43.304;24.344;2023-05-02T11:14:44;100613.88;;;25.46;27.90
12781;BME280;6454;43.304;24.344;2023-05-02T11:17:17;100614.06;;;25.60;29.23
12781;BME280;6454;43.304;24.344;2023-05-02T11:22:58;100606.59;;;25.38;28.71
12781;BME280;6454;43.304;24.344;2023-05-02T11:25:31;100604.13;;;25.33;27.57
12781;BME280;6454;43.304;24.344;2023-05-02T11:27:58;100599.53;;;25.44;30.17
12781;BME280;6454;43.304;24.344;2023-05-02T11:30:44;100590.50;;;25.47;28.96
12781;BME280;6454;43.304;24.344;2023-05-02T11:33:14;100593.13;;;25.67;28.53
12781;BME280;6454;43.304;24.344;2023-05-02T11:35:43;100593.28;;;25.81;27.76
12781;BME280;6454;43.304;24.344;2023-05-02T11:38:12;100599.63;;;25.78;27.18
12781;BME280;6454;43.304;24.344;2023-05-02T11:40:40;100593.94;;;25.67;27.21
12781;BME280;6454;43.304;24.344;2023-05-02T11:43:17;100582.66;;;25.56;27.59
12781;BME280;6454;43.304;24.344;2023-05-02T11:45:46;100583.97;;;25.63;27.49
12781;BME280;6454;43.304;24.344;2023-05-02T11:48:15;100582.75;;;25.64;27.72
12781;BME280;6454;43.304;24.344;2023-05-02T11:50:43;100579.38;;;25.77;28.30
12781;BME280;6454;43.304;24.344;2023-05-02T11:53:11;100577.47;;;25.85;27.12
12781;BME280;6454;43.304;24.344;2023-05-02T11:55:43;100570.47;;;25.98;27.17
12781;BME280;6454;43.304;24.344;2023-05-02T11:58:14;100573.59;;;25.93;26.08
12781;BME280;6454;43.304;24.344;2023-05-02T12:00:42;100548.47;;;25.82;27.24
12781;BME280;6454;43.304;24.344;2023-05-02T12:03:20;100559.88;;;26.10;26.88
12781;BME280;6454;43.304;24.344;2023-05-02T12:05:48;100567.47;;;26.10;26.11
12781;BME280;6454;43.304;24.344;2023-05-02T12:08:20;100566.69;;;26.13;26.28
12781;BME280;6454;43.304;24.344;2023-05-02T12:10:47;100562.66;;;26.07;27.11
12781;BME280;6454;43.304;24.344;2023-05-02T12:13:15;100551.47;;;26.03;27.01
12781;BME280;6454;43.304;24.344;2023-05-02T12:15:43;100550.00;;;26.13;27.29
12781;BME280;6454;43.304;24.344;2023-05-02T12:18:10;100541.22;;;26.11;26.88
12781;BME280;6454;43.304;24.344;2023-05-02T12:20:39;100547.00;;;26.25;26.84
12781;BME280;6454;43.304;24.344;2023-05-02T12:23:07;100552.34;;;26.11;25.95
12781;BME280;6454;43.304;24.344;2023-05-02T12:25:37;100541.16;;;26.04;25.13
12781;BME280;6454;43.304;24.344;2023-05-02T12:28:04;100538.44;;;26.07;26.00
12781;BME280;6454;43.304;24.344;2023-05-02T12:30:32;100541.88;;;25.97;26.25
12781;BME280;6454;43.304;24.344;2023-05-02T12:33:00;100531.78;;;26.15;25.71
12781;BME280;6454;43.304;24.344;2023-05-02T12:35:27;100528.97;;;26.12;27.10
12781;BME280;6454;43.304;24.344;2023-05-02T12:38:07;100517.28;;;25.99;25.48
12781;BME280;6454;43.304;24.344;2023-05-02T12:40:35;100523.44;;;26.15;26.15
12781;BME280;6454;43.304;24.344;2023-05-02T12:43:02;100521.50;;;26.19;25.73
12781;BME280;6454;43.304;24.344;2023-05-02T12:45:31;100518.16;;;26.07;24.90
12781;BME280;6454;43.304;24.344;2023-05-02T12:47:59;100509.75;;;26.00;25.02
12781;BME280;6454;43.304;24.344;2023-05-02T12:50:36;100501.75;;;25.95;25.86
12781;BME280;6454;43.304;24.344;2023-05-02T12:53:04;100502.94;;;25.94;25.54
12781;BME280;6454;43.304;24.344;2023-05-02T12:55:32;100463.75;;;25.69;25.70
12781;BME280;6454;43.304;24.344;2023-05-02T12:58:00;100478.19;;;25.85;27.17
12781;BME280;6454;43.304;24.344;2023-05-02T13:00:27;100490.44;;;26.14;27.05
12781;BME280;6454;43.304;24.344;2023-05-02T13:02:54;100485.50;;;26.41;26.76
12781;BME280;6454;43.304;24.344;2023-05-02T13:05:21;100484.44;;;26.52;26.18